createdAt,value
2022-08-05T00:00:21.243Z,34.1640625
2022-08-05T00:01:27.856Z,34.669921875
2022-08-05T00:02:21.333Z,34.2109375
2022-08-05T00:03:21.537Z,34.44140625
2022-08-05T00:04:24.210Z,34.568359375
2022-08-05T00:05:27.191Z,34.119140625
2022-08-05T00:06:30.749Z,34.2919921875
2022-08-05T00:07:27.373Z,34.7060546875
2022-08-05T00:08:34.447Z,34.22265625
2022-08-05T00:09:21.205Z,33.9599609375
2022-08-05T00:10:21.132Z,33.787109375
2022-08-05T00:11:30.400Z,33.755859375
2022-08-05T00:12:21.309Z,32.9150390625
2022-08-05T00:13:21.468Z,32.623046875
2022-08-05T00:14:21.298Z,33.513671875
2022-08-05T00:15:55.780Z,34.568359375
2022-08-05T00:16:35.418Z,35.263671875
2022-08-05T00:17:21.225Z,36.0244140625
2022-08-05T00:18:22.627Z,36.03515625
2022-08-05T00:19:22.181Z,36.5078125
2022-08-05T00:20:21.228Z,37.0419921875
2022-08-05T00:21:21.237Z,37.2744140625
2022-08-05T00:22:21.091Z,37.46875
2022-08-05T00:23:30.869Z,37.806640625
2022-08-05T00:24:24.663Z,38.4091796875
2022-08-05T00:25:21.120Z,38.9287109375
2022-08-05T00:26:22.090Z,39.4384765625
2022-08-05T00:27:21.319Z,39.7919921875
2022-08-05T00:28:21.592Z,40.12890625
2022-08-05T00:29:25.514Z,40.1982421875
2022-08-05T00:30:21.154Z,40.19921875
2022-08-05T00:31:53.046Z,40.3046875
2022-08-05T00:32:21.311Z,40.5712890625
2022-08-05T00:34:53.693Z,40.826171875
2022-08-05T00:34:55.794Z,40.65234375
2022-08-05T00:36:16.530Z,40.9072265625
2022-08-05T00:37:13.798Z,40.87109375
2022-08-05T00:38:09.591Z,41.09375
2022-08-05T00:39:13.654Z,40.896484375
2022-08-05T00:40:09.347Z,41.0595703125
2022-08-05T00:41:15.254Z,41.048828125
2022-08-05T00:42:09.160Z,41.0263671875
2022-08-05T00:43:09.391Z,40.9931640625
2022-08-05T00:44:09.157Z,40.9248046875
2022-08-05T00:45:11.645Z,41.19921875
2022-08-05T00:46:09.156Z,41.2451171875
2022-08-05T00:47:11.906Z,41.4111328125
2022-08-05T00:48:10.151Z,41.3173828125
2022-08-05T00:49:09.172Z,41.330078125
2022-08-05T00:50:09.042Z,41.2841796875
2022-08-05T00:51:50.411Z,41.2607421875
2022-08-05T00:52:08.943Z,41.1220703125
2022-08-05T00:53:16.035Z,41.1240234375
2022-08-05T00:54:09.049Z,40.890625
2022-08-05T00:55:09.054Z,40.8232421875
2022-08-05T00:56:09.319Z,40.8330078125
2022-08-05T00:57:12.095Z,40.8662109375
2022-08-05T00:58:11.110Z,40.9013671875
2022-08-05T00:59:09.048Z,40.9833984375
2022-08-05T01:00:11.187Z,41.041015625
2022-08-05T01:01:09.642Z,41.0166015625
2022-08-05T01:02:08.966Z,41.0498046875
2022-08-05T01:03:09.344Z,41.060546875
2022-08-05T01:04:14.126Z,41.08203125
2022-08-05T01:05:10.041Z,41.0595703125
2022-08-05T01:06:13.986Z,41.107421875
2022-08-05T01:07:13.673Z,41.1865234375
2022-08-05T01:08:40.996Z,41.220703125
2022-08-05T01:09:09.161Z,41.009765625
2022-08-05T01:10:09.250Z,40.4150390625
2022-08-05T01:11:09.326Z,40.4248046875
2022-08-05T01:12:18.046Z,40.58203125
2022-08-05T01:13:13.392Z,40.453125
2022-08-05T01:14:09.207Z,40.736328125
2022-08-05T01:15:18.142Z,40.783203125
2022-08-05T01:16:09.092Z,40.8427734375
2022-08-05T01:17:09.059Z,40.5146484375
2022-08-05T01:18:09.389Z,40.328125
2022-08-05T01:19:11.970Z,41.765625
2022-08-05T01:20:09.069Z,41.7802734375
2022-08-05T01:21:08.965Z,43.076171875
2022-08-05T01:22:10.888Z,44.720703125
2022-08-05T01:23:14.993Z,45.3662109375
2022-08-05T01:24:13.266Z,45.1162109375
2022-08-05T01:25:09.140Z,44.625
2022-08-05T01:26:09.713Z,45.9443359375
2022-08-05T01:27:19.157Z,46.0078125
2022-08-05T01:28:09.387Z,46.5625
2022-08-05T01:29:09.057Z,44.4462890625
2022-08-05T01:30:17.721Z,42.130859375
2022-08-05T01:31:09.056Z,41.5263671875
2022-08-05T01:32:12.316Z,41.228515625
2022-08-05T01:33:09.379Z,41.419921875
2022-08-05T01:34:09.048Z,41.1513671875
2022-08-05T01:35:11.963Z,41.466796875
2022-08-05T01:36:13.086Z,40.546875
2022-08-05T01:37:09.085Z,40.578125
2022-08-05T01:38:09.324Z,40.880859375
2022-08-05T01:39:09.196Z,41.27734375
2022-08-05T01:40:09.113Z,41.0205078125
2022-08-05T01:41:09.308Z,41.08984375
2022-08-05T01:42:09.657Z,41.2060546875
2022-08-05T01:43:09.309Z,41.4580078125
2022-08-05T01:44:09.634Z,41.4814453125
2022-08-05T01:45:09.132Z,41.6875
2022-08-05T01:46:16.334Z,41.7529296875
2022-08-05T01:47:09.636Z,42.2119140625
2022-08-05T01:48:10.268Z,42.39453125
2022-08-05T01:49:22.915Z,42.5205078125
2022-08-05T01:50:09.065Z,42.4833984375
2022-08-05T01:51:12.889Z,42.5625
2022-08-05T01:52:17.689Z,42.7451171875
2022-08-05T01:53:09.376Z,42.779296875
2022-08-05T01:54:09.929Z,42.83984375
2022-08-05T01:55:09.135Z,42.8505859375
2022-08-05T01:56:09.187Z,42.966796875
2022-08-05T01:58:11.650Z,43.01953125
2022-08-05T01:58:15.491Z,42.9609375
2022-08-05T01:59:09.159Z,42.9013671875
2022-08-05T02:00:11.654Z,42.9931640625
2022-08-05T02:01:09.227Z,43.154296875
2022-08-05T02:02:10.681Z,43.234375
2022-08-05T02:03:24.237Z,43.22265625
2022-08-05T02:04:09.086Z,43.2236328125
2022-08-05T02:05:11.665Z,43.107421875
2022-08-05T02:06:37.284Z,43.341796875
2022-08-05T02:07:09.103Z,43.92578125
2022-08-05T02:08:14.926Z,44.205078125
2022-08-05T02:09:09.025Z,44.5537109375
2022-08-05T02:10:09.034Z,44.865234375
2022-08-05T02:11:11.755Z,44.8515625
2022-08-05T02:12:10.253Z,45.037109375
2022-08-05T02:13:16.269Z,45.2236328125
2022-08-05T02:14:12.466Z,45.51171875
2022-08-05T02:15:12.510Z,45.6259765625
2022-08-05T02:16:09.123Z,45.70703125
2022-08-05T02:17:17.037Z,45.6953125
2022-08-05T02:18:27.704Z,45.869140625
2022-08-05T02:19:11.971Z,46.1494140625
2022-08-05T02:20:09.127Z,45.35546875
2022-08-05T02:21:15.144Z,45.2138671875
2022-08-05T02:22:09.043Z,45.6083984375
2022-08-05T02:23:09.568Z,46.0341796875
2022-08-05T02:24:09.048Z,46.201171875
2022-08-05T02:25:08.968Z,46.2412109375
2022-08-05T02:26:09.381Z,46.263671875
2022-08-05T02:27:10.379Z,46.7294921875
2022-08-05T02:28:09.306Z,46.3876953125
2022-08-05T02:29:09.029Z,46.2998046875
2022-08-05T02:30:11.946Z,47.0654296875
2022-08-05T02:31:13.821Z,47.7744140625
2022-08-05T02:32:09.046Z,48.3037109375
2022-08-05T02:33:09.048Z,48.0849609375
2022-08-05T02:34:09.978Z,48.0615234375
2022-08-05T02:35:13.745Z,48.5732421875
2022-08-05T02:36:09.420Z,48.7548828125
2022-08-05T02:37:09.111Z,49.0283203125
2022-08-05T02:38:09.723Z,49.4560546875
2022-08-05T02:39:09.191Z,49.1357421875
2022-08-05T02:40:09.601Z,49.8662109375
2022-08-05T02:41:17.804Z,50.056640625
2022-08-05T02:42:09.140Z,50.6611328125
2022-08-05T02:43:09.384Z,54.4326171875
2022-08-05T02:44:12.273Z,59.6845703125
2022-08-05T02:45:09.173Z,75.8466796875
2022-08-05T02:46:09.109Z,0
2022-08-05T02:47:09.041Z,0
2022-08-05T02:48:11.695Z,0
2022-08-05T02:49:11.072Z,0
2022-08-05T02:50:09.117Z,0
2022-08-05T02:51:09.097Z,0
2022-08-05T02:52:25.838Z,0
2022-08-05T02:53:11.692Z,0
2022-08-05T02:54:09.104Z,0
2022-08-05T02:55:10.827Z,0
2022-08-05T02:56:09.392Z,0
2022-08-05T02:57:09.763Z,0
2022-08-05T02:58:20.417Z,0
2022-08-05T02:59:09.066Z,0
2022-08-05T03:00:09.112Z,0
2022-08-05T03:01:09.170Z,0
2022-08-05T03:02:09.130Z,0
2022-08-05T03:03:14.963Z,0
2022-08-05T03:04:14.379Z,0
2022-08-05T03:05:09.088Z,0
2022-08-05T03:06:56.225Z,0
2022-08-05T03:07:09.034Z,0
2022-08-05T03:08:09.738Z,0
2022-08-05T03:09:09.069Z,0
2022-08-05T03:10:09.085Z,0
2022-08-05T03:11:55.324Z,0
2022-08-05T03:12:09.130Z,0
2022-08-05T03:13:09.374Z,0
2022-08-05T03:14:13.584Z,0
2022-08-05T03:15:09.387Z,0
2022-08-05T03:16:09.093Z,0
2022-08-05T03:17:09.237Z,0
2022-08-05T03:18:09.395Z,0
2022-08-05T03:19:12.841Z,0
2022-08-05T03:20:08.927Z,0
2022-08-05T03:21:08.973Z,0
2022-08-05T03:22:16.300Z,0
2022-08-05T03:23:09.388Z,0
2022-08-05T03:24:09.157Z,0
2022-08-05T03:25:33.751Z,0
2022-08-05T03:26:32.152Z,0
2022-08-05T03:27:09.121Z,0
2022-08-05T03:28:09.379Z,0
2022-08-05T03:29:12.363Z,0
2022-08-05T03:30:09.282Z,0
2022-08-05T03:31:08.987Z,0
2022-08-05T03:32:09.052Z,0
2022-08-05T03:33:09.382Z,0
2022-08-05T03:34:09.026Z,0
2022-08-05T03:35:09.154Z,0
2022-08-05T03:36:12.305Z,0
2022-08-05T03:37:09.110Z,0
2022-08-05T03:38:09.381Z,0
2022-08-05T03:39:13.090Z,0
2022-08-05T03:40:09.168Z,0
2022-08-05T03:41:10.948Z,0
2022-08-05T03:42:09.059Z,0
2022-08-05T03:43:58.307Z,0
2022-08-05T03:44:11.879Z,0
2022-08-05T03:45:21.134Z,0
2022-08-05T03:46:09.065Z,0
2022-08-05T03:47:13.597Z,0
2022-08-05T03:48:09.307Z,0
2022-08-05T03:49:09.171Z,0
2022-08-05T03:50:10.124Z,0
2022-08-05T03:52:37.212Z,0
2022-08-05T03:52:49.266Z,0
2022-08-05T03:55:34.462Z,0
2022-08-05T03:55:54.776Z,0
2022-08-05T03:56:43.413Z,0
2022-08-05T03:57:43.138Z,0
2022-08-05T03:58:43.336Z,0
2022-08-05T03:59:47.042Z,0
2022-08-05T04:00:44.280Z,0
2022-08-05T04:01:46.181Z,0
2022-08-05T04:02:52.335Z,0
2022-08-05T04:04:09.146Z,0
2022-08-05T04:04:43.172Z,0
2022-08-05T04:05:43.094Z,0
2022-08-05T04:06:48.000Z,0
2022-08-05T04:07:57.529Z,0
2022-08-05T04:08:43.060Z,0
2022-08-05T04:09:53.415Z,0
2022-08-05T04:10:43.338Z,0
2022-08-05T04:11:50.583Z,0
2022-08-05T04:13:53.426Z,0
2022-08-05T04:14:50.070Z,0
2022-08-05T04:15:52.777Z,0
2022-08-05T04:16:50.156Z,0
2022-08-05T04:17:57.167Z,0
2022-08-05T04:18:54.285Z,0
2022-08-05T04:19:54.520Z,0
2022-08-05T04:20:50.046Z,0
2022-08-05T04:22:08.562Z,0
2022-08-05T04:22:50.338Z,0
2022-08-05T04:23:57.160Z,0
2022-08-05T04:24:52.885Z,0
2022-08-05T04:26:00.354Z,0
2022-08-05T04:26:50.175Z,0
2022-08-05T04:27:56.872Z,0
2022-08-05T04:28:51.328Z,0
2022-08-05T04:29:53.053Z,0
2022-08-05T04:30:50.177Z,0
2022-08-05T04:31:50.049Z,0
2022-08-05T04:32:50.396Z,0
2022-08-05T04:34:18.011Z,0
2022-08-05T04:34:50.174Z,0
2022-08-05T04:36:10.945Z,0
2022-08-05T04:36:50.490Z,0
2022-08-05T04:38:00.857Z,0
2022-08-05T04:38:51.023Z,0
2022-08-05T04:39:52.685Z,0
2022-08-05T04:40:56.036Z,0
2022-08-05T04:41:51.057Z,0
2022-08-05T04:42:50.395Z,0
2022-08-05T04:43:52.079Z,0
2022-08-05T04:44:50.183Z,0
2022-08-05T04:45:55.682Z,0
2022-08-05T04:46:49.974Z,0
2022-08-05T04:47:50.113Z,0
2022-08-05T04:48:51.706Z,0
2022-08-05T04:50:02.721Z,0
2022-08-05T04:51:02.925Z,0
2022-08-05T04:52:00.442Z,0
2022-08-05T04:52:50.435Z,0
2022-08-05T04:53:50.040Z,0
2022-08-05T04:54:50.079Z,0
2022-08-05T04:56:14.319Z,0
2022-08-05T04:56:50.184Z,0
2022-08-05T04:57:54.056Z,0
2022-08-05T04:58:50.056Z,0
2022-08-05T04:59:50.054Z,0
2022-08-05T05:00:50.680Z,0
2022-08-05T05:02:07.607Z,0
2022-08-05T05:03:00.222Z,0
2022-08-05T05:03:50.155Z,0
2022-08-05T05:04:50.609Z,0
2022-08-05T05:06:36.705Z,0
2022-08-05T05:06:52.091Z,0
2022-08-05T05:07:55.216Z,0
2022-08-05T05:08:50.237Z,0
2022-08-05T05:09:50.164Z,0
2022-08-05T05:10:55.747Z,0
2022-08-05T05:11:55.398Z,0
2022-08-05T05:12:50.670Z,0
2022-08-05T05:13:53.049Z,0
2022-08-05T05:14:51.333Z,0
2022-08-05T05:16:00.524Z,0
2022-08-05T05:16:50.513Z,0
2022-08-05T05:17:56.485Z,0
2022-08-05T05:19:16.528Z,0
2022-08-05T05:19:50.062Z,0
2022-08-05T05:20:50.094Z,0
2022-08-05T05:21:50.172Z,0
2022-08-05T05:22:50.320Z,0
2022-08-05T05:24:04.139Z,0
2022-08-05T05:24:58.090Z,76.3505859375
2022-08-05T05:25:50.328Z,76.5166015625
2022-08-05T05:26:50.062Z,76.376953125
2022-08-05T05:27:53.611Z,77.234375
2022-08-05T05:28:50.049Z,76.2509765625
2022-08-05T05:30:04.250Z,74.22265625
2022-08-05T05:30:50.155Z,74.576171875
2022-08-05T05:31:50.061Z,73.48828125
2022-08-05T05:32:50.396Z,70.8232421875
2022-08-05T05:33:59.487Z,69.0380859375
2022-08-05T05:34:50.064Z,68.5087890625
2022-08-05T05:35:50.079Z,67.455078125
2022-08-05T05:36:51.254Z,67.51171875
2022-08-05T05:37:59.413Z,67.994140625
2022-08-05T05:38:50.137Z,67.2783203125
2022-08-05T05:39:50.133Z,67.759765625
2022-08-05T05:40:56.064Z,66.71875
2022-08-05T05:41:54.264Z,68.029296875
2022-08-05T05:42:50.389Z,67.6494140625
2022-08-05T05:43:57.436Z,66.75
2022-08-05T05:44:50.074Z,66.8115234375
2022-08-05T05:45:50.059Z,67.220703125
2022-08-05T05:46:50.088Z,67.56640625
2022-08-05T05:48:06.280Z,64.97265625
2022-08-05T05:48:50.119Z,64.4345703125
2022-08-05T05:49:52.639Z,63.294921875
2022-08-05T05:50:50.096Z,63.2353515625
2022-08-05T05:51:53.516Z,62.2265625
2022-08-05T05:52:50.441Z,60.7646484375
2022-08-05T05:53:57.997Z,60.25
2022-08-05T05:54:51.289Z,60.73046875
2022-08-05T05:55:52.450Z,60.521484375
2022-08-05T05:56:50.140Z,60.6806640625
2022-08-05T05:57:52.385Z,59.8662109375
2022-08-05T05:58:50.084Z,60.1806640625
2022-08-05T05:59:50.169Z,60.2490234375
2022-08-05T06:00:50.123Z,59.6943359375
2022-08-05T06:01:57.362Z,59.37109375
2022-08-05T06:02:56.012Z,58.5458984375
2022-08-05T06:04:01.064Z,58.337890625
2022-08-05T06:04:50.122Z,56.7099609375
2022-08-05T06:05:54.237Z,56.53515625
2022-08-05T06:06:49.961Z,56.041015625
2022-08-05T06:07:57.985Z,55.7666015625
2022-08-05T06:08:50.022Z,55.1513671875
2022-08-05T06:10:01.426Z,55.3203125
2022-08-05T06:10:52.827Z,56.3515625
2022-08-05T06:12:01.976Z,56.1943359375
2022-08-05T06:12:50.390Z,55.953125
2022-08-05T06:13:54.158Z,55.5
2022-08-05T06:14:51.756Z,54.2724609375
2022-08-05T06:16:29.541Z,52.4013671875
2022-08-05T06:16:50.077Z,45.49609375
2022-08-05T06:17:52.767Z,41.3681640625
2022-08-05T06:18:50.374Z,37.8837890625
2022-08-05T06:19:57.202Z,36.263671875
2022-08-05T06:20:50.109Z,36.583984375
2022-08-05T06:21:50.159Z,36.8134765625
2022-08-05T06:22:50.458Z,36.6923828125
2022-08-05T06:23:50.102Z,36.5498046875
2022-08-05T06:24:52.984Z,37.8544921875
2022-08-05T06:26:13.436Z,39.171875
2022-08-05T06:26:51.406Z,39.5849609375
2022-08-05T06:28:12.288Z,39.7626953125
2022-08-05T06:28:50.193Z,41.4052734375
2022-08-05T06:30:04.208Z,42.00390625
2022-08-05T06:30:50.087Z,41.4951171875
2022-08-05T06:31:50.637Z,39.7099609375
2022-08-05T06:32:50.714Z,40.2197265625
2022-08-05T06:34:07.050Z,40.3173828125
2022-08-05T06:34:53.543Z,40.4267578125
2022-08-05T06:36:03.472Z,39.8984375
2022-08-05T06:36:57.454Z,36.3916015625
2022-08-05T06:37:55.873Z,30.662109375
2022-08-05T06:38:50.073Z,25.0009765625
2022-08-05T06:39:50.084Z,20.001953125
2022-08-05T06:40:50.320Z,16.7666015625
2022-08-05T06:41:50.035Z,13.2783203125
2022-08-05T06:42:52.288Z,10.9052734375
2022-08-05T06:43:58.026Z,10.052734375
2022-08-05T06:44:50.087Z,10.7958984375
2022-08-05T06:46:06.391Z,12.435546875
2022-08-05T06:46:54.354Z,16.4912109375
2022-08-05T06:48:36.869Z,17.3525390625
2022-08-05T06:48:56.717Z,17.7275390625
2022-08-05T06:50:00.130Z,18.244140625
2022-08-05T06:50:50.400Z,19.28125
2022-08-05T06:51:50.047Z,21.3408203125
2022-08-05T06:52:58.696Z,23.912109375
2022-08-05T06:53:53.597Z,24.8076171875
2022-08-05T06:54:53.373Z,25.42578125
2022-08-05T06:55:50.084Z,28.900390625
2022-08-05T06:56:54.487Z,31.564453125
2022-08-05T06:58:02.824Z,32.716796875
2022-08-05T06:58:50.406Z,34.189453125
2022-08-05T06:59:56.474Z,34.98828125
2022-08-05T07:00:50.486Z,36.8193359375
2022-08-05T07:01:52.940Z,37.720703125
2022-08-05T07:02:53.991Z,39.0263671875
2022-08-05T07:03:50.061Z,39.6748046875
2022-08-05T07:04:50.098Z,40.265625
2022-08-05T07:05:50.331Z,41.228515625
2022-08-05T07:06:50.417Z,40.390625
2022-08-05T07:07:49.969Z,41.6259765625
2022-08-05T07:08:52.049Z,41.3984375
2022-08-05T07:09:58.225Z,42.1572265625
2022-08-05T07:10:53.191Z,41.65234375
2022-08-05T07:11:51.718Z,42.568359375
2022-08-05T07:12:50.100Z,43.48046875
2022-08-05T07:13:59.575Z,44.84375
2022-08-05T07:14:50.172Z,45.060546875
2022-08-05T07:16:01.789Z,45.9970703125
2022-08-05T07:18:00.085Z,46.28515625
2022-08-05T07:18:02.208Z,46.423828125
2022-08-05T07:18:50.105Z,46.447265625
2022-08-05T07:20:32.585Z,46.798828125
2022-08-05T07:20:50.405Z,47.0556640625
2022-08-05T07:22:00.137Z,46.88671875
2022-08-05T07:22:50.181Z,46.7158203125
2022-08-05T07:23:52.292Z,46.8330078125
2022-08-05T07:24:53.715Z,45.7841796875
2022-08-05T07:25:56.134Z,45.009765625
2022-08-05T07:26:50.165Z,45.0205078125
2022-08-05T07:27:58.772Z,44.5927734375
2022-08-05T07:28:50.152Z,44.10546875
2022-08-05T07:30:27.320Z,43.8017578125
2022-08-05T07:30:52.879Z,44.2705078125
2022-08-05T07:31:55.032Z,44.9814453125
2022-08-05T07:32:50.953Z,45.7451171875
2022-08-05T07:33:50.051Z,45.0185546875
2022-08-05T07:34:50.176Z,45.1650390625
2022-08-05T07:36:05.763Z,45.6640625
2022-08-05T07:36:51.205Z,46.400390625
2022-08-05T07:37:49.973Z,46.1875
2022-08-05T07:38:54.798Z,46.818359375
2022-08-05T07:40:27.051Z,46.7109375
2022-08-05T07:40:55.633Z,46.5185546875
2022-08-05T07:42:13.252Z,46.88671875
2022-08-05T07:42:49.942Z,47.1865234375
2022-08-05T07:43:49.974Z,47.4208984375
2022-08-05T07:44:49.959Z,47.1708984375
2022-08-05T07:45:57.541Z,47.990234375
2022-08-05T07:46:52.970Z,48.6572265625
2022-08-05T07:47:50.155Z,49.0576171875
2022-08-05T07:49:02.944Z,49.716796875
2022-08-05T07:49:54.666Z,50.17578125
2022-08-05T07:50:50.409Z,50.271484375
2022-08-05T07:51:54.456Z,50.00390625
2022-08-05T07:52:50.099Z,49.6943359375
2022-08-05T07:53:51.197Z,48.9599609375
2022-08-05T07:54:50.118Z,48.37109375
2022-08-05T07:56:06.539Z,47.7119140625
2022-08-05T07:57:02.527Z,47.2705078125
2022-08-05T07:57:58.740Z,46.8017578125
2022-08-05T07:58:54.908Z,46.6181640625
2022-08-05T07:59:50.147Z,46.0810546875
2022-08-05T08:00:50.409Z,45.66796875
2022-08-05T08:01:52.327Z,45.7919921875
2022-08-05T08:03:13.855Z,45.767578125
2022-08-05T08:03:51.369Z,46.2431640625
2022-08-05T08:04:50.048Z,46.5361328125
2022-08-05T08:05:50.411Z,46.3955078125
2022-08-05T08:06:50.173Z,47.1884765625
2022-08-05T08:07:59.442Z,48.1875
2022-08-05T08:08:53.001Z,48.3125
2022-08-05T08:09:50.130Z,49.326171875
2022-08-05T08:10:50.415Z,49.5888671875
2022-08-05T08:11:53.522Z,49.796875
2022-08-05T08:12:50.082Z,49.44140625
2022-08-05T08:14:00.716Z,49.974609375
2022-08-05T08:14:50.165Z,49.8935546875
2022-08-05T08:16:50.117Z,49.5693359375
2022-08-05T08:16:53.503Z,49.357421875
2022-08-05T08:17:53.036Z,49.3681640625
2022-08-05T08:18:50.691Z,48.6435546875
2022-08-05T08:20:22.442Z,48.3046875
2022-08-05T08:21:02.081Z,47.978515625
2022-08-05T08:21:50.044Z,47.962890625
2022-08-05T08:22:50.073Z,47.7138671875
2022-08-05T08:24:01.653Z,47.59375
2022-08-05T08:24:53.046Z,46.4443359375
2022-08-05T08:25:59.810Z,45.470703125
2022-08-05T08:26:50.049Z,44.751953125
2022-08-05T08:27:51.340Z,44.4462890625
2022-08-05T08:28:58.922Z,43.517578125
2022-08-05T08:30:06.688Z,43.4267578125
2022-08-05T08:30:50.277Z,43.396484375
2022-08-05T08:31:50.059Z,42.9736328125
2022-08-05T08:32:50.179Z,42.86328125
2022-08-05T08:33:51.445Z,42.810546875
2022-08-05T08:34:50.110Z,43.337890625
2022-08-05T08:36:12.973Z,43.6455078125
2022-08-05T08:36:55.702Z,43.3583984375
2022-08-05T08:37:51.838Z,43.9580078125
2022-08-05T08:38:53.070Z,44.451171875
2022-08-05T08:39:50.219Z,44.6337890625
2022-08-05T08:40:51.638Z,44.634765625
2022-08-05T08:41:50.590Z,44.4296875
2022-08-05T08:42:52.465Z,44.220703125
2022-08-05T08:45:18.935Z,43.9013671875
2022-08-05T08:45:24.750Z,43.4658203125
2022-08-05T08:45:50.327Z,42.6474609375
2022-08-05T08:46:52.992Z,42.541015625
2022-08-05T08:48:12.561Z,42.5986328125
2022-08-05T08:49:06.429Z,41.63671875
2022-08-05T08:50:22.951Z,40.9755859375
2022-08-05T08:51:07.588Z,40.0341796875
2022-08-05T08:52:02.900Z,39.056640625
2022-08-05T08:52:51.732Z,38.1474609375
2022-08-05T08:53:50.132Z,37.1142578125
2022-08-05T08:54:50.035Z,35.5703125
2022-08-05T08:56:03.405Z,35.1572265625
2022-08-05T08:56:50.059Z,34.5498046875
2022-08-05T08:57:57.925Z,34.4013671875
2022-08-05T08:58:50.573Z,34.99609375
2022-08-05T08:59:49.969Z,35.1484375
2022-08-05T09:00:50.451Z,35.6337890625
2022-08-05T09:01:57.633Z,35.2958984375
2022-08-05T09:02:49.940Z,34.412109375
2022-08-05T09:03:54.385Z,33.52734375
2022-08-05T09:05:16.111Z,33.3671875
2022-08-05T09:06:07.429Z,33.193359375
2022-08-05T09:06:50.067Z,33.0341796875
2022-08-05T09:07:56.762Z,32.5244140625
2022-08-05T09:08:53.022Z,31.91015625
2022-08-05T09:09:50.178Z,31.34765625
2022-08-05T09:10:50.334Z,31.4912109375
2022-08-05T09:11:50.806Z,30.8515625
2022-08-05T09:12:51.097Z,31.4453125
2022-08-05T09:14:10.132Z,30.6923828125
2022-08-05T09:14:56.576Z,30.974609375
2022-08-05T09:15:50.404Z,31.6982421875
2022-08-05T09:16:50.067Z,31.8291015625
2022-08-05T09:17:50.090Z,32.5478515625
2022-08-05T09:18:50.086Z,32.8544921875
2022-08-05T09:20:01.734Z,33.1259765625
2022-08-05T09:20:50.348Z,33.5263671875
2022-08-05T09:22:22.998Z,34.0283203125
2022-08-05T09:22:51.892Z,34.5673828125
2022-08-05T09:23:49.971Z,34.7001953125
2022-08-05T09:24:50.060Z,34.681640625
2022-08-05T09:26:00.898Z,34.478515625
2022-08-05T09:26:51.700Z,35.23046875
2022-08-05T09:28:04.774Z,35.642578125
2022-08-05T09:28:49.972Z,36.068359375
2022-08-05T09:29:50.086Z,36.244140625
2022-08-05T09:30:50.662Z,36.361328125
2022-08-05T09:32:40.694Z,36.1455078125
2022-08-05T09:32:50.239Z,36.123046875
2022-08-05T09:33:50.886Z,36.5087890625
2022-08-05T09:34:50.088Z,35.8125
2022-08-05T09:35:56.027Z,35.595703125
2022-08-05T09:36:54.978Z,35.4384765625
2022-08-05T09:38:17.541Z,35.16015625
2022-08-05T09:38:49.971Z,34.80078125
2022-08-05T09:39:52.354Z,34.7099609375
2022-08-05T09:40:52.170Z,35.068359375
2022-08-05T09:41:56.175Z,35.283203125
2022-08-05T09:42:50.044Z,34.451171875
2022-08-05T09:43:50.174Z,34.1630859375
2022-08-05T09:44:51.234Z,33.8720703125
2022-08-05T09:46:06.247Z,33.52734375
2022-08-05T09:46:57.972Z,32.875
2022-08-05T09:47:56.197Z,33.3408203125
2022-08-05T09:49:06.883Z,33.634765625
2022-08-05T09:50:01.113Z,33.3095703125
2022-08-05T09:50:50.332Z,33.404296875
2022-08-05T09:51:50.455Z,33.2197265625
2022-08-05T09:52:52.964Z,33.1943359375
2022-08-05T09:53:54.544Z,32.9833984375
2022-08-05T09:54:50.141Z,33.2080078125
2022-08-05T09:55:56.947Z,32.986328125
2022-08-05T09:56:52.328Z,33.150390625
2022-08-05T09:57:54.663Z,33.58984375
2022-08-05T09:58:50.240Z,33.6796875
2022-08-05T09:59:50.151Z,33.7255859375
2022-08-05T10:00:50.333Z,33.5654296875
2022-08-05T10:01:55.480Z,33.419921875
2022-08-05T10:02:50.190Z,32.9052734375
2022-08-05T10:03:58.510Z,32.6279296875
2022-08-05T10:04:50.075Z,32.1318359375
2022-08-05T10:05:50.336Z,31.8603515625
2022-08-05T10:06:59.030Z,31.76171875
2022-08-05T10:08:10.908Z,30.876953125
2022-08-05T10:08:55.383Z,30.5283203125
2022-08-05T10:10:00.284Z,30.3212890625
2022-08-05T10:10:54.040Z,30.5107421875
2022-08-05T10:11:50.028Z,31.2255859375
2022-08-05T10:12:50.450Z,31.7294921875
2022-08-05T10:13:50.070Z,31.53125
2022-08-05T10:14:54.279Z,31.7744140625
2022-08-05T10:15:50.332Z,31.6484375
2022-08-05T10:16:52.967Z,31.37109375
2022-08-05T10:17:56.663Z,31.869140625
2022-08-05T10:18:50.112Z,32.1494140625
2022-08-05T10:20:03.269Z,32.45703125
2022-08-05T10:20:50.332Z,32.1513671875
2022-08-05T10:21:50.096Z,32.1845703125
2022-08-05T10:22:51.135Z,31.958984375
2022-08-05T10:23:59.557Z,31.8994140625
2022-08-05T10:24:50.636Z,31.724609375
2022-08-05T10:25:56.016Z,31.4052734375
2022-08-05T10:26:52.337Z,30.68359375
2022-08-05T10:28:13.104Z,30.283203125
2022-08-05T10:28:50.025Z,29.0400390625
2022-08-05T10:30:41.444Z,28.021484375
2022-08-05T10:32:47.440Z,27.0322265625
2022-08-05T10:32:52.647Z,25.212890625
2022-08-05T10:33:38.030Z,24.9921875
2022-08-05T10:34:40.743Z,24.4658203125
2022-08-05T10:35:40.606Z,24.005859375
2022-08-05T10:36:38.013Z,23.86328125
2022-08-05T10:37:45.059Z,24.55078125
2022-08-05T10:38:37.988Z,24.8681640625
2022-08-05T10:40:03.235Z,24.8115234375
2022-08-05T10:40:38.958Z,25.1650390625
2022-08-05T10:41:45.534Z,24.8115234375
2022-08-05T10:42:37.944Z,25.021484375
2022-08-05T10:43:38.033Z,25.3974609375
2022-08-05T10:44:37.902Z,25.2587890625
2022-08-05T10:45:39.746Z,24.7802734375
2022-08-05T10:46:37.967Z,24.1455078125
2022-08-05T10:47:37.938Z,24.0947265625
2022-08-05T10:48:57.427Z,24.4130859375
2022-08-05T10:49:48.763Z,24.0478515625
2022-08-05T10:50:38.431Z,23.8583984375
2022-08-05T10:51:48.526Z,24.1513671875
2022-08-05T10:52:37.989Z,24.1513671875
2022-08-05T10:53:38.400Z,24.2490234375
2022-08-05T10:54:38.044Z,23.779296875
2022-08-05T10:56:03.803Z,23.345703125
2022-08-05T10:56:38.124Z,22.69921875
2022-08-05T10:57:38.710Z,22.513671875
2022-08-05T10:58:48.643Z,22.3955078125
2022-08-05T11:00:03.645Z,21.8193359375
2022-08-05T11:00:41.977Z,21.6103515625
2022-08-05T11:01:54.498Z,21.2314453125
2022-08-05T11:02:43.501Z,21.251953125
2022-08-05T11:03:37.926Z,20.9580078125
2022-08-05T11:04:37.891Z,20.64453125
2022-08-05T11:05:38.309Z,19.6513671875
2022-08-05T11:06:38.014Z,20.07421875
2022-08-05T11:08:01.722Z,20.2255859375
2022-08-05T11:08:39.345Z,20.3017578125
2022-08-05T11:09:45.434Z,19.7861328125
2022-08-05T11:10:38.275Z,19.546875
2022-08-05T11:11:52.935Z,19.7490234375
2022-08-05T11:12:38.017Z,20.1240234375
2022-08-05T11:13:37.906Z,20.6376953125
2022-08-05T11:15:01.111Z,21.0009765625
2022-08-05T11:15:59.446Z,21.1005859375
2022-08-05T11:16:56.153Z,21.2333984375
2022-08-05T11:17:57.116Z,22.6162109375
2022-08-05T11:18:37.988Z,23.216796875